sensor_id;sensor_type;location;lat;lon;timestamp;P1;durP1;ratioP1;P2;durP2;ratioP2
56517;SDS011;42419;48.760;2.322;2023-08-01T00:00:59;5.60;;;3.53;;
56517;SDS011;42419;48.760;2.322;2023-08-01T00:03:24;4.57;;;3.23;;
56517;SDS011;42419;48.760;2.322;2023-08-01T00:05:50;4.23;;;3.43;;
56517;SDS011;42419;48.760;2.322;2023-08-01T00:08:15;5.30;;;3.73;;
56517;SDS011;42419;48.760;2.322;2023-08-01T00:10:40;6.23;;;4.30;;
56517;SDS011;42419;48.760;2.322;2023-08-01T00:13:06;5.23;;;3.53;;
56517;SDS011;42419;48.760;2.322;2023-08-01T00:15:32;5.73;;;3.70;;
56517;SDS011;42419;48.760;2.322;2023-08-01T00:17:57;8.73;;;4.57;;
56517;SDS011;42419;48.760;2.322;2023-08-01T00:20:23;5.00;;;3.87;;
56517;SDS011;42419;48.760;2.322;2023-08-01T00:22:48;5.70;;;3.90;;
56517;SDS011;42419;48.760;2.322;2023-08-01T00:25:13;5.60;;;4.27;;
56517;SDS011;42419;48.760;2.322;2023-08-01T00:27:39;3.90;;;3.50;;
56517;SDS011;42419;48.760;2.322;2023-08-01T00:30:04;5.90;;;3.93;;
56517;SDS011;42419;48.760;2.322;2023-08-01T00:32:30;5.37;;;3.70;;
56517;SDS011;42419;48.760;2.322;2023-08-01T00:34:56;6.93;;;3.90;;
56517;SDS011;42419;48.760;2.322;2023-08-01T00:37:21;4.53;;;3.67;;
56517;SDS011;42419;48.760;2.322;2023-08-01T00:39:46;4.60;;;3.97;;
56517;SDS011;42419;48.760;2.322;2023-08-01T00:42:12;5.43;;;3.13;;
56517;SDS011;42419;48.760;2.322;2023-08-01T00:44:38;4.97;;;3.77;;
56517;SDS011;42419;48.760;2.322;2023-08-01T00:47:03;3.67;;;3.37;;
56517;SDS011;42419;48.760;2.322;2023-08-01T00:49:29;4.93;;;3.67;;
56517;SDS011;42419;48.760;2.322;2023-08-01T00:51:54;5.60;;;4.27;;
56517;SDS011;42419;48.760;2.322;2023-08-01T00:54:20;3.90;;;3.50;;
56517;SDS011;42419;48.760;2.322;2023-08-01T00:56:45;3.67;;;3.10;;
56517;SDS011;42419;48.760;2.322;2023-08-01T00:59:11;4.20;;;3.20;;
56517;SDS011;42419;48.760;2.322;2023-08-01T01:01:37;3.03;;;2.73;;
56517;SDS011;42419;48.760;2.322;2023-08-01T01:04:03;3.10;;;2.80;;
56517;SDS011;42419;48.760;2.322;2023-08-01T01:06:32;4.13;;;3.20;;
56517;SDS011;42419;48.760;2.322;2023-08-01T01:09:02;6.27;;;3.10;;
56517;SDS011;42419;48.760;2.322;2023-08-01T01:11:38;3.60;;;2.87;;
56517;SDS011;42419;48.760;2.322;2023-08-01T01:14:04;3.57;;;2.77;;
56517;SDS011;42419;48.760;2.322;2023-08-01T01:16:29;4.17;;;3.13;;
56517;SDS011;42419;48.760;2.322;2023-08-01T01:18:54;3.03;;;2.73;;
56517;SDS011;42419;48.760;2.322;2023-08-01T01:21:20;3.77;;;2.73;;
56517;SDS011;42419;48.760;2.322;2023-08-01T01:23:45;3.90;;;2.93;;
56517;SDS011;42419;48.760;2.322;2023-08-01T01:26:12;3.00;;;2.67;;
56517;SDS011;42419;48.760;2.322;2023-08-01T01:28:41;3.30;;;2.73;;
56517;SDS011;42419;48.760;2.322;2023-08-01T01:31:08;3.17;;;2.87;;
56517;SDS011;42419;48.760;2.322;2023-08-01T01:33:34;2.90;;;2.43;;
56517;SDS011;42419;48.760;2.322;2023-08-01T01:36:00;3.97;;;2.60;;
56517;SDS011;42419;48.760;2.322;2023-08-01T01:38:26;2.67;;;2.47;;
56517;SDS011;42419;48.760;2.322;2023-08-01T01:40:52;3.90;;;2.40;;
56517;SDS011;42419;48.760;2.322;2023-08-01T01:43:17;2.60;;;2.40;;
56517;SDS011;42419;48.760;2.322;2023-08-01T01:45:42;2.90;;;2.20;;
56517;SDS011;42419;48.760;2.322;2023-08-01T01:48:08;2.33;;;2.00;;
56517;SDS011;42419;48.760;2.322;2023-08-01T01:50:33;2.70;;;2.20;;
56517;SDS011;42419;48.760;2.322;2023-08-01T01:52:59;4.23;;;2.37;;
56517;SDS011;42419;48.760;2.322;2023-08-01T01:55:24;2.60;;;2.20;;
56517;SDS011;42419;48.760;2.322;2023-08-01T01:57:52;2.23;;;2.07;;
56517;SDS011;42419;48.760;2.322;2023-08-01T02:00:17;2.70;;;2.10;;
56517;SDS011;42419;48.760;2.322;2023-08-01T02:02:43;2.57;;;2.37;;
56517;SDS011;42419;48.760;2.322;2023-08-01T02:05:08;3.30;;;1.90;;
56517;SDS011;42419;48.760;2.322;2023-08-01T02:07:33;2.20;;;2.00;;
56517;SDS011;42419;48.760;2.322;2023-08-01T02:09:59;2.10;;;1.90;;
56517;SDS011;42419;48.760;2.322;2023-08-01T02:12:25;2.33;;;2.13;;
56517;SDS011;42419;48.760;2.322;2023-08-01T02:14:50;2.00;;;1.70;;
56517;SDS011;42419;48.760;2.322;2023-08-01T02:17:15;2.30;;;2.10;;
56517;SDS011;42419;48.760;2.322;2023-08-01T02:19:41;2.00;;;1.73;;
56517;SDS011;42419;48.760;2.322;2023-08-01T02:22:06;2.00;;;1.80;;
56517;SDS011;42419;48.760;2.322;2023-08-01T02:24:31;2.63;;;1.67;;
56517;SDS011;42419;48.760;2.322;2023-08-01T02:26:57;3.40;;;1.77;;
56517;SDS011;42419;48.760;2.322;2023-08-01T02:29:22;1.60;;;1.50;;
56517;SDS011;42419;48.760;2.322;2023-08-01T02:31:47;2.17;;;1.70;;
56517;SDS011;42419;48.760;2.322;2023-08-01T02:34:13;1.83;;;1.50;;
56517;SDS011;42419;48.760;2.322;2023-08-01T02:36:38;1.70;;;1.40;;
56517;SDS011;42419;48.760;2.322;2023-08-01T02:39:05;1.70;;;1.40;;
56517;SDS011;42419;48.760;2.322;2023-08-01T02:41:32;1.60;;;1.27;;
56517;SDS011;42419;48.760;2.322;2023-08-01T02:43:58;1.50;;;1.30;;
56517;SDS011;42419;48.760;2.322;2023-08-01T02:46:23;3.10;;;1.90;;
56517;SDS011;42419;48.760;2.322;2023-08-01T02:48:48;2.17;;;1.47;;
56517;SDS011;42419;48.760;2.322;2023-08-01T02:51:14;2.10;;;1.73;;
56517;SDS011;42419;48.760;2.322;2023-08-01T02:53:39;1.47;;;1.37;;
56517;SDS011;42419;48.760;2.322;2023-08-01T02:56:07;1.57;;;1.23;;
56517;SDS011;42419;48.760;2.322;2023-08-01T02:58:35;2.50;;;1.40;;
56517;SDS011;42419;48.760;2.322;2023-08-01T03:01:01;1.70;;;1.50;;
56517;SDS011;42419;48.760;2.322;2023-08-01T03:03:26;2.43;;;1.40;;
56517;SDS011;42419;48.760;2.322;2023-08-01T03:05:52;1.53;;;1.30;;
56517;SDS011;42419;48.760;2.322;2023-08-01T03:08:18;2.10;;;1.30;;
56517;SDS011;42419;48.760;2.322;2023-08-01T03:10:43;1.47;;;1.37;;
56517;SDS011;42419;48.760;2.322;2023-08-01T03:13:09;1.30;;;1.10;;
56517;SDS011;42419;48.760;2.322;2023-08-01T03:15:34;1.70;;;1.23;;
56517;SDS011;42419;48.760;2.322;2023-08-01T03:17:59;1.50;;;1.13;;
56517;SDS011;42419;48.760;2.322;2023-08-01T03:20:25;1.80;;;1.20;;
56517;SDS011;42419;48.760;2.322;2023-08-01T03:22:50;1.40;;;1.10;;
56517;SDS011;42419;48.760;2.322;2023-08-01T03:25:16;3.10;;;1.30;;
56517;SDS011;42419;48.760;2.322;2023-08-01T03:27:41;1.40;;;1.03;;
56517;SDS011;42419;48.760;2.322;2023-08-01T03:30:06;1.50;;;0.90;;
56517;SDS011;42419;48.760;2.322;2023-08-01T03:32:34;1.30;;;1.13;;
56517;SDS011;42419;48.760;2.322;2023-08-01T03:34:59;1.20;;;1.00;;
56517;SDS011;42419;48.760;2.322;2023-08-01T03:37:25;1.20;;;1.10;;
56517;SDS011;42419;48.760;2.322;2023-08-01T03:39:50;1.20;;;1.10;;
56517;SDS011;42419;48.760;2.322;2023-08-01T03:42:15;2.37;;;1.20;;
56517;SDS011;42419;48.760;2.322;2023-08-01T03:44:41;1.40;;;1.20;;
56517;SDS011;42419;48.760;2.322;2023-08-01T03:47:06;1.40;;;1.10;;
56517;SDS011;42419;48.760;2.322;2023-08-01T03:49:31;2.33;;;1.30;;
56517;SDS011;42419;48.760;2.322;2023-08-01T03:51:57;1.43;;;1.03;;
56517;SDS011;42419;48.760;2.322;2023-08-01T03:54:22;1.40;;;1.07;;
56517;SDS011;42419;48.760;2.322;2023-08-01T03:56:47;1.30;;;1.07;;
56517;SDS011;42419;48.760;2.322;2023-08-01T03:59:13;1.30;;;1.00;;
56517;SDS011;42419;48.760;2.322;2023-08-01T04:01:40;1.37;;;0.93;;
56517;SDS011;42419;48.760;2.322;2023-08-01T04:04:06;1.10;;;0.90;;
56517;SDS011;42419;48.760;2.322;2023-08-01T04:06:32;1.73;;;1.33;;
56517;SDS011;42419;48.760;2.322;2023-08-01T04:08:57;1.60;;;0.90;;
56517;SDS011;42419;48.760;2.322;2023-08-01T04:11:24;1.20;;;1.10;;
56517;SDS011;42419;48.760;2.322;2023-08-01T04:13:50;1.20;;;1.10;;
56517;SDS011;42419;48.760;2.322;2023-08-01T04:16:15;1.50;;;1.17;;
56517;SDS011;42419;48.760;2.322;2023-08-01T04:18:41;2.07;;;1.20;;
56517;SDS011;42419;48.760;2.322;2023-08-01T04:21:06;1.47;;;1.20;;
56517;SDS011;42419;48.760;2.322;2023-08-01T04:23:33;2.97;;;1.63;;
56517;SDS011;42419;48.760;2.322;2023-08-01T04:25:58;1.90;;;1.50;;
56517;SDS011;42419;48.760;2.322;2023-08-01T04:28:24;1.70;;;1.40;;
56517;SDS011;42419;48.760;2.322;2023-08-01T04:30:50;2.90;;;1.60;;
56517;SDS011;42419;48.760;2.322;2023-08-01T04:33:15;1.80;;;1.27;;
56517;SDS011;42419;48.760;2.322;2023-08-01T04:35:41;2.00;;;1.33;;
56517;SDS011;42419;48.760;2.322;2023-08-01T04:38:06;1.60;;;1.17;;
56517;SDS011;42419;48.760;2.322;2023-08-01T04:40:33;1.97;;;1.77;;
56517;SDS011;42419;48.760;2.322;2023-08-01T04:42:59;1.50;;;1.37;;
56517;SDS011;42419;48.760;2.322;2023-08-01T04:45:25;1.43;;;1.33;;
56517;SDS011;42419;48.760;2.322;2023-08-01T04:47:50;1.63;;;1.50;;
56517;SDS011;42419;48.760;2.322;2023-08-01T04:50:15;2.63;;;1.43;;
56517;SDS011;42419;48.760;2.322;2023-08-01T04:52:41;1.67;;;1.30;;
56517;SDS011;42419;48.760;2.322;2023-08-01T04:55:06;1.97;;;1.60;;
56517;SDS011;42419;48.760;2.322;2023-08-01T04:57:32;2.67;;;2.00;;
56517;SDS011;42419;48.760;2.322;2023-08-01T04:59:57;3.00;;;1.37;;
56517;SDS011;42419;48.760;2.322;2023-08-01T05:02:24;2.03;;;1.50;;
56517;SDS011;42419;48.760;2.322;2023-08-01T05:04:51;1.90;;;1.27;;
56517;SDS011;42419;48.760;2.322;2023-08-01T05:07:16;1.60;;;1.50;;
56517;SDS011;42419;48.760;2.322;2023-08-01T05:09:41;2.37;;;1.60;;
56517;SDS011;42419;48.760;2.322;2023-08-01T05:12:07;2.80;;;1.80;;
56517;SDS011;42419;48.760;2.322;2023-08-01T05:14:33;1.60;;;1.50;;
56517;SDS011;42419;48.760;2.322;2023-08-01T05:16:59;1.60;;;1.50;;
56517;SDS011;42419;48.760;2.322;2023-08-01T05:19:24;2.57;;;1.60;;
56517;SDS011;42419;48.760;2.322;2023-08-01T05:21:50;4.50;;;1.90;;
56517;SDS011;42419;48.760;2.322;2023-08-01T05:24:15;1.60;;;1.40;;
56517;SDS011;42419;48.760;2.322;2023-08-01T05:26:40;2.13;;;1.60;;
56517;SDS011;42419;48.760;2.322;2023-08-01T05:29:06;2.10;;;1.67;;
56517;SDS011;42419;48.760;2.322;2023-08-01T05:31:31;2.00;;;1.77;;
56517;SDS011;42419;48.760;2.322;2023-08-01T05:33:56;1.70;;;1.60;;
56517;SDS011;42419;48.760;2.322;2023-08-01T05:36:22;2.63;;;1.80;;
56517;SDS011;42419;48.760;2.322;2023-08-01T05:38:47;3.00;;;1.90;;
56517;SDS011;42419;48.760;2.322;2023-08-01T05:41:12;2.30;;;2.10;;
56517;SDS011;42419;48.760;2.322;2023-08-01T05:43:37;2.10;;;1.90;;
56517;SDS011;42419;48.760;2.322;2023-08-01T05:46:03;2.03;;;1.83;;
56517;SDS011;42419;48.760;2.322;2023-08-01T05:48:28;2.33;;;2.00;;
56517;SDS011;42419;48.760;2.322;2023-08-01T05:50:53;2.70;;;1.90;;
56517;SDS011;42419;48.760;2.322;2023-08-01T05:53:20;2.03;;;1.83;;
56517;SDS011;42419;48.760;2.322;2023-08-01T05:55:46;2.00;;;1.80;;
56517;SDS011;42419;48.760;2.322;2023-08-01T05:58:12;3.20;;;2.10;;
56517;SDS011;42419;48.760;2.322;2023-08-01T06:00:40;2.47;;;2.20;;
56517;SDS011;42419;48.760;2.322;2023-08-01T06:03:05;2.20;;;2.00;;
56517;SDS011;42419;48.760;2.322;2023-08-01T06:05:31;4.90;;;2.10;;
56517;SDS011;42419;48.760;2.322;2023-08-01T06:07:56;3.30;;;2.00;;
56517;SDS011;42419;48.760;2.322;2023-08-01T06:10:21;3.13;;;1.90;;
56517;SDS011;42419;48.760;2.322;2023-08-01T06:12:47;3.20;;;2.13;;
56517;SDS011;42419;48.760;2.322;2023-08-01T06:15:12;4.23;;;2.67;;
56517;SDS011;42419;48.760;2.322;2023-08-01T06:17:38;2.87;;;2.10;;
56517;SDS011;42419;48.760;2.322;2023-08-01T06:20:03;2.60;;;2.40;;
56517;SDS011;42419;48.760;2.322;2023-08-01T06:22:29;2.63;;;1.90;;
56517;SDS011;42419;48.760;2.322;2023-08-01T06:24:55;3.30;;;2.00;;
56517;SDS011;42419;48.760;2.322;2023-08-01T06:27:21;3.90;;;2.20;;
56517;SDS011;42419;48.760;2.322;2023-08-01T06:29:46;4.63;;;1.93;;
56517;SDS011;42419;48.760;2.322;2023-08-01T06:32:11;4.50;;;2.73;;
56517;SDS011;42419;48.760;2.322;2023-08-01T06:34:37;4.77;;;2.47;;
56517;SDS011;42419;48.760;2.322;2023-08-01T06:37:02;4.43;;;2.37;;
56517;SDS011;42419;48.760;2.322;2023-08-01T06:39:28;3.50;;;2.60;;
56517;SDS011;42419;48.760;2.322;2023-08-01T06:41:54;5.20;;;2.40;;
56517;SDS011;42419;48.760;2.322;2023-08-01T06:44:19;4.70;;;2.77;;
56517;SDS011;42419;48.760;2.322;2023-08-01T06:46:45;5.43;;;2.47;;
56517;SDS011;42419;48.760;2.322;2023-08-01T06:49:10;6.07;;;2.57;;
56517;SDS011;42419;48.760;2.322;2023-08-01T06:51:35;2.60;;;2.10;;
56517;SDS011;42419;48.760;2.322;2023-08-01T06:54:00;3.33;;;2.33;;
56517;SDS011;42419;48.760;2.322;2023-08-01T06:56:26;3.47;;;2.50;;
56517;SDS011;42419;48.760;2.322;2023-08-01T06:58:51;3.80;;;2.50;;
56517;SDS011;42419;48.760;2.322;2023-08-01T07:01:16;4.57;;;2.53;;
56517;SDS011;42419;48.760;2.322;2023-08-01T07:03:42;5.40;;;3.13;;
56517;SDS011;42419;48.760;2.322;2023-08-01T07:06:07;4.50;;;2.57;;
56517;SDS011;42419;48.760;2.322;2023-08-01T07:08:32;3.53;;;2.30;;
56517;SDS011;42419;48.760;2.322;2023-08-01T07:10:58;7.10;;;2.93;;
56517;SDS011;42419;48.760;2.322;2023-08-01T07:13:24;5.00;;;2.80;;
56517;SDS011;42419;48.760;2.322;2023-08-01T07:15:52;5.63;;;2.67;;
56517;SDS011;42419;48.760;2.322;2023-08-01T07:18:17;4.57;;;2.50;;
56517;SDS011;42419;48.760;2.322;2023-08-01T07:20:43;3.87;;;2.47;;
56517;SDS011;42419;48.760;2.322;2023-08-01T07:23:09;2.40;;;2.10;;
56517;SDS011;42419;48.760;2.322;2023-08-01T07:25:35;4.67;;;2.80;;
56517;SDS011;42419;48.760;2.322;2023-08-01T07:28:00;4.20;;;2.70;;
56517;SDS011;42419;48.760;2.322;2023-08-01T07:30:25;5.40;;;3.40;;
56517;SDS011;42419;48.760;2.322;2023-08-01T07:32:51;6.70;;;3.10;;
56517;SDS011;42419;48.760;2.322;2023-08-01T07:35:16;6.30;;;3.00;;
56517;SDS011;42419;48.760;2.322;2023-08-01T07:37:41;4.67;;;2.53;;
56517;SDS011;42419;48.760;2.322;2023-08-01T07:40:07;4.33;;;2.63;;
56517;SDS011;42419;48.760;2.322;2023-08-01T07:42:33;4.33;;;2.57;;
56517;SDS011;42419;48.760;2.322;2023-08-01T07:44:58;3.23;;;2.80;;
56517;SDS011;42419;48.760;2.322;2023-08-01T07:47:24;5.93;;;2.50;;
56517;SDS011;42419;48.760;2.322;2023-08-01T07:49:49;4.10;;;2.80;;
56517;SDS011;42419;48.760;2.322;2023-08-01T07:52:15;5.43;;;2.80;;
56517;SDS011;42419;48.760;2.322;2023-08-01T07:54:40;4.23;;;2.57;;
56517;SDS011;42419;48.760;2.322;2023-08-01T07:57:06;5.67;;;3.03;;
56517;SDS011;42419;48.760;2.322;2023-08-01T07:59:31;4.27;;;3.07;;
56517;SDS011;42419;48.760;2.322;2023-08-01T08:01:56;4.77;;;2.67;;
56517;SDS011;42419;48.760;2.322;2023-08-01T08:04:22;5.07;;;2.97;;
56517;SDS011;42419;48.760;2.322;2023-08-01T08:06:47;5.23;;;2.87;;
56517;SDS011;42419;48.760;2.322;2023-08-01T08:09:12;5.00;;;2.50;;
56517;SDS011;42419;48.760;2.322;2023-08-01T08:11:37;6.37;;;2.97;;
56517;SDS011;42419;48.760;2.322;2023-08-01T08:14:03;3.33;;;2.70;;
56517;SDS011;42419;48.760;2.322;2023-08-01T08:16:28;5.93;;;3.13;;
56517;SDS011;42419;48.760;2.322;2023-08-01T08:18:54;5.40;;;2.50;;
56517;SDS011;42419;48.760;2.322;2023-08-01T08:21:19;3.33;;;2.10;;
56517;SDS011;42419;48.760;2.322;2023-08-01T08:23:45;5.87;;;2.50;;
56517;SDS011;42419;48.760;2.322;2023-08-01T08:26:10;4.10;;;2.40;;
56517;SDS011;42419;48.760;2.322;2023-08-01T08:28:36;6.50;;;2.83;;
56517;SDS011;42419;48.760;2.322;2023-08-01T08:31:01;3.17;;;2.53;;
56517;SDS011;42419;48.760;2.322;2023-08-01T08:33:28;6.83;;;2.97;;
56517;SDS011;42419;48.760;2.322;2023-08-01T08:35:54;3.23;;;2.47;;
56517;SDS011;42419;48.760;2.322;2023-08-01T08:38:19;6.73;;;3.30;;
56517;SDS011;42419;48.760;2.322;2023-08-01T08:43:32;3.27;;;2.70;;
56517;SDS011;42419;48.760;2.322;2023-08-01T08:46:00;5.50;;;2.70;;
56517;SDS011;42419;48.760;2.322;2023-08-01T08:48:26;6.10;;;2.80;;
56517;SDS011;42419;48.760;2.322;2023-08-01T08:50:52;5.97;;;3.07;;
56517;SDS011;42419;48.760;2.322;2023-08-01T08:53:17;5.60;;;2.70;;
56517;SDS011;42419;48.760;2.322;2023-08-01T08:55:43;3.90;;;2.80;;
56517;SDS011;42419;48.760;2.322;2023-08-01T08:58:09;6.80;;;3.00;;
56517;SDS011;42419;48.760;2.322;2023-08-01T09:00:37;5.00;;;2.83;;
56517;SDS011;42419;48.760;2.322;2023-08-01T09:03:06;6.03;;;2.83;;
56517;SDS011;42419;48.760;2.322;2023-08-01T09:05:34;6.07;;;3.00;;
56517;SDS011;42419;48.760;2.322;2023-08-01T09:08:06;3.97;;;2.73;;
56517;SDS011;42419;48.760;2.322;2023-08-01T09:10:36;4.87;;;2.60;;
56517;SDS011;42419;48.760;2.322;2023-08-01T09:13:01;7.70;;;2.80;;
56517;SDS011;42419;48.760;2.322;2023-08-01T09:15:26;6.23;;;2.70;;
56517;SDS011;42419;48.760;2.322;2023-08-01T09:17:54;4.17;;;3.13;;
56517;SDS011;42419;48.760;2.322;2023-08-01T09:20:28;4.43;;;2.50;;
56517;SDS011;42419;48.760;2.322;2023-08-01T09:22:53;7.70;;;2.83;;
56517;SDS011;42419;48.760;2.322;2023-08-01T09:25:19;4.53;;;2.87;;
56517;SDS011;42419;48.760;2.322;2023-08-01T09:27:44;3.07;;;2.47;;
56517;SDS011;42419;48.760;2.322;2023-08-01T09:30:13;3.40;;;2.30;;
56517;SDS011;42419;48.760;2.322;2023-08-01T09:32:54;5.50;;;2.80;;
56517;SDS011;42419;48.760;2.322;2023-08-01T09:35:22;2.80;;;2.50;;
56517;SDS011;42419;48.760;2.322;2023-08-01T09:37:48;5.17;;;2.97;;
56517;SDS011;42419;48.760;2.322;2023-08-01T09:40:14;3.47;;;2.70;;
56517;SDS011;42419;48.760;2.322;2023-08-01T09:42:40;5.30;;;2.47;;
56517;SDS011;42419;48.760;2.322;2023-08-01T09:45:13;5.07;;;2.87;;
56517;SDS011;42419;48.760;2.322;2023-08-01T09:47:39;4.13;;;2.50;;
56517;SDS011;42419;48.760;2.322;2023-08-01T09:50:05;5.63;;;3.77;;
56517;SDS011;42419;48.760;2.322;2023-08-01T09:52:30;4.33;;;2.60;;
56517;SDS011;42419;48.760;2.322;2023-08-01T09:54:55;5.13;;;2.70;;
56517;SDS011;42419;48.760;2.322;2023-08-01T09:57:21;3.77;;;2.60;;
56517;SDS011;42419;48.760;2.322;2023-08-01T09:59:47;4.73;;;2.70;;
56517;SDS011;42419;48.760;2.322;2023-08-01T10:02:15;4.60;;;2.43;;
56517;SDS011;42419;48.760;2.322;2023-08-01T10:04:44;5.03;;;3.23;;
56517;SDS011;42419;48.760;2.322;2023-08-01T10:07:11;5.07;;;2.80;;
56517;SDS011;42419;48.760;2.322;2023-08-01T10:09:38;4.60;;;2.70;;
56517;SDS011;42419;48.760;2.322;2023-08-01T10:12:07;4.10;;;2.67;;
56517;SDS011;42419;48.760;2.322;2023-08-01T10:14:37;6.10;;;2.90;;
56517;SDS011;42419;48.760;2.322;2023-08-01T10:17:04;4.80;;;2.43;;
56517;SDS011;42419;48.760;2.322;2023-08-01T10:19:31;3.70;;;2.30;;
56517;SDS011;42419;48.760;2.322;2023-08-01T10:21:58;6.00;;;2.77;;
56517;SDS011;42419;48.760;2.322;2023-08-01T10:24:24;8.43;;;3.20;;
56517;SDS011;42419;48.760;2.322;2023-08-01T10:26:54;5.43;;;2.53;;
56517;SDS011;42419;48.760;2.322;2023-08-01T10:29:20;3.63;;;2.43;;
56517;SDS011;42419;48.760;2.322;2023-08-01T10:31:52;5.73;;;2.97;;
56517;SDS011;42419;48.760;2.322;2023-08-01T10:34:17;4.03;;;2.70;;
56517;SDS011;42419;48.760;2.322;2023-08-01T10:36:52;4.57;;;2.67;;
56517;SDS011;42419;48.760;2.322;2023-08-01T10:39:22;5.57;;;3.20;;
56517;SDS011;42419;48.760;2.322;2023-08-01T10:41:56;4.67;;;2.70;;
56517;SDS011;42419;48.760;2.322;2023-08-01T10:44:25;4.70;;;2.50;;
56517;SDS011;42419;48.760;2.322;2023-08-01T10:46:52;4.20;;;2.27;;
56517;SDS011;42419;48.760;2.322;2023-08-01T10:49:19;4.67;;;2.53;;
56517;SDS011;42419;48.760;2.322;2023-08-01T10:51:45;4.53;;;2.50;;
56517;SDS011;42419;48.760;2.322;2023-08-01T10:54:20;4.03;;;2.87;;
56517;SDS011;42419;48.760;2.322;2023-08-01T10:56:50;7.70;;;2.57;;
56517;SDS011;42419;48.760;2.322;2023-08-01T10:59:17;4.53;;;3.00;;
56517;SDS011;42419;48.760;2.322;2023-08-01T11:01:50;4.93;;;2.60;;
56517;SDS011;42419;48.760;2.322;2023-08-01T11:04:20;3.40;;;2.27;;
56517;SDS011;42419;48.760;2.322;2023-08-01T11:06:47;4.40;;;2.23;;
56517;SDS011;42419;48.760;2.322;2023-08-01T11:09:15;3.93;;;2.43;;
56517;SDS011;42419;48.760;2.322;2023-08-01T11:11:51;2.90;;;2.30;;
56517;SDS011;42419;48.760;2.322;2023-08-01T11:14:23;3.10;;;2.10;;
56517;SDS011;42419;48.760;2.322;2023-08-01T11:16:50;3.60;;;2.43;;
56517;SDS011;42419;48.760;2.322;2023-08-01T11:19:19;3.10;;;2.47;;
56517;SDS011;42419;48.760;2.322;2023-08-01T11:21:51;2.93;;;2.40;;
56517;SDS011;42419;48.760;2.322;2023-08-01T11:24:18;4.40;;;2.50;;
56517;SDS011;42419;48.760;2.322;2023-08-01T11:26:45;4.97;;;2.73;;
56517;SDS011;42419;48.760;2.322;2023-08-01T11:29:12;5.03;;;3.00;;
56517;SDS011;42419;48.760;2.322;2023-08-01T11:31:38;3.93;;;2.30;;
56517;SDS011;42419;48.760;2.322;2023-08-01T11:34:06;4.70;;;2.40;;
56517;SDS011;42419;48.760;2.322;2023-08-01T11:36:33;3.30;;;2.70;;
56517;SDS011;42419;48.760;2.322;2023-08-01T11:38:59;6.40;;;2.87;;
56517;SDS011;42419;48.760;2.322;2023-08-01T11:41:28;5.30;;;2.50;;
56517;SDS011;42419;48.760;2.322;2023-08-01T11:43:54;4.90;;;2.90;;
56517;SDS011;42419;48.760;2.322;2023-08-01T11:46:30;4.33;;;2.67;;
56517;SDS011;42419;48.760;2.322;2023-08-01T11:48:57;3.77;;;2.60;;
56517;SDS011;42419;48.760;2.322;2023-08-01T11:51:23;4.30;;;2.73;;
56517;SDS011;42419;48.760;2.322;2023-08-01T11:54:02;3.50;;;2.60;;
56517;SDS011;42419;48.760;2.322;2023-08-01T11:56:28;4.30;;;2.50;;
56517;SDS011;42419;48.760;2.322;2023-08-01T11:58:57;4.13;;;2.70;;
56517;SDS011;42419;48.760;2.322;2023-08-01T12:01:23;4.70;;;2.43;;
56517;SDS011;42419;48.760;2.322;2023-08-01T12:03:50;4.90;;;2.17;;
56517;SDS011;42419;48.760;2.322;2023-08-01T12:06:17;3.97;;;2.50;;
56517;SDS011;42419;48.760;2.322;2023-08-01T12:08:45;5.27;;;2.50;;
56517;SDS011;42419;48.760;2.322;2023-08-01T12:11:21;6.50;;;3.10;;
56517;SDS011;42419;48.760;2.322;2023-08-01T12:13:46;4.90;;;3.00;;
56517;SDS011;42419;48.760;2.322;2023-08-01T12:16:13;3.07;;;2.40;;
56517;SDS011;42419;48.760;2.322;2023-08-01T12:18:40;3.90;;;2.97;;
56517;SDS011;42419;48.760;2.322;2023-08-01T12:21:07;3.23;;;2.27;;
56517;SDS011;42419;48.760;2.322;2023-08-01T12:23:33;3.07;;;2.30;;
56517;SDS011;42419;48.760;2.322;2023-08-01T12:25:58;2.67;;;2.00;;
56517;SDS011;42419;48.760;2.322;2023-08-01T12:28:23;5.17;;;2.80;;
56517;SDS011;42419;48.760;2.322;2023-08-01T12:30:49;3.30;;;2.47;;
56517;SDS011;42419;48.760;2.322;2023-08-01T12:33:16;4.60;;;2.60;;
56517;SDS011;42419;48.760;2.322;2023-08-01T12:35:41;2.90;;;2.10;;
56517;SDS011;42419;48.760;2.322;2023-08-01T12:38:07;5.53;;;3.00;;
56517;SDS011;42419;48.760;2.322;2023-08-01T12:40:33;5.80;;;2.67;;
56517;SDS011;42419;48.760;2.322;2023-08-01T12:42:59;4.30;;;2.70;;
56517;SDS011;42419;48.760;2.322;2023-08-01T12:45:27;3.83;;;2.43;;
56517;SDS011;42419;48.760;2.322;2023-08-01T12:47:52;4.63;;;2.53;;
56517;SDS011;42419;48.760;2.322;2023-08-01T12:50:17;3.97;;;2.93;;
56517;SDS011;42419;48.760;2.322;2023-08-01T12:52:43;3.77;;;2.53;;
56517;SDS011;42419;48.760;2.322;2023-08-01T12:55:08;4.03;;;2.57;;
56517;SDS011;42419;48.760;2.322;2023-08-01T12:57:33;4.20;;;2.17;;
56517;SDS011;42419;48.760;2.322;2023-08-01T12:59:59;5.30;;;2.87;;
56517;SDS011;42419;48.760;2.322;2023-08-01T13:02:26;4.23;;;2.40;;
56517;SDS011;42419;48.760;2.322;2023-08-01T13:04:51;4.87;;;3.00;;
56517;SDS011;42419;48.760;2.322;2023-08-01T13:07:16;4.97;;;2.70;;
56517;SDS011;42419;48.760;2.322;2023-08-01T13:09:42;4.23;;;2.53;;
56517;SDS011;42419;48.760;2.322;2023-08-01T13:12:07;6.87;;;2.60;;
56517;SDS011;42419;48.760;2.322;2023-08-01T13:14:32;5.13;;;2.77;;
56517;SDS011;42419;48.760;2.322;2023-08-01T13:16:58;5.90;;;2.77;;
56517;SDS011;42419;48.760;2.322;2023-08-01T13:19:24;8.53;;;3.07;;
56517;SDS011;42419;48.760;2.322;2023-08-01T13:21:50;5.00;;;2.90;;
56517;SDS011;42419;48.760;2.322;2023-08-01T13:24:15;5.30;;;3.43;;
56517;SDS011;42419;48.760;2.322;2023-08-01T13:26:40;3.87;;;2.63;;
56517;SDS011;42419;48.760;2.322;2023-08-01T13:29:05;3.67;;;2.47;;
56517;SDS011;42419;48.760;2.322;2023-08-01T13:31:31;5.97;;;2.87;;
56517;SDS011;42419;48.760;2.322;2023-08-01T13:33:56;5.17;;;3.03;;
56517;SDS011;42419;48.760;2.322;2023-08-01T13:36:21;5.50;;;2.83;;
56517;SDS011;42419;48.760;2.322;2023-08-01T13:38:48;4.33;;;2.77;;
56517;SDS011;42419;48.760;2.322;2023-08-01T13:41:14;3.67;;;3.10;;
56517;SDS011;42419;48.760;2.322;2023-08-01T13:43:40;3.87;;;2.50;;
56517;SDS011;42419;48.760;2.322;2023-08-01T13:46:12;3.33;;;3.03;;
56517;SDS011;42419;48.760;2.322;2023-08-01T13:48:40;5.87;;;3.50;;
56517;SDS011;42419;48.760;2.322;2023-08-01T13:51:09;6.57;;;3.20;;
56517;SDS011;42419;48.760;2.322;2023-08-01T13:53:35;3.40;;;2.30;;
56517;SDS011;42419;48.760;2.322;2023-08-01T13:56:05;3.30;;;2.77;;
56517;SDS011;42419;48.760;2.322;2023-08-01T13:58:30;4.37;;;2.10;;
56517;SDS011;42419;48.760;2.322;2023-08-01T14:00:55;5.50;;;2.83;;
56517;SDS011;42419;48.760;2.322;2023-08-01T14:03:26;3.60;;;2.50;;
56517;SDS011;42419;48.760;2.322;2023-08-01T14:05:52;4.87;;;2.00;;
56517;SDS011;42419;48.760;2.322;2023-08-01T14:08:17;3.20;;;2.47;;
56517;SDS011;42419;48.760;2.322;2023-08-01T14:10:42;4.27;;;1.93;;
56517;SDS011;42419;48.760;2.322;2023-08-01T14:13:08;3.17;;;2.20;;
56517;SDS011;42419;48.760;2.322;2023-08-01T14:15:33;2.67;;;1.80;;
56517;SDS011;42419;48.760;2.322;2023-08-01T14:17:58;4.07;;;2.07;;
56517;SDS011;42419;48.760;2.322;2023-08-01T14:20:24;3.07;;;2.37;;
56517;SDS011;42419;48.760;2.322;2023-08-01T14:22:49;4.90;;;2.00;;
56517;SDS011;42419;48.760;2.322;2023-08-01T14:25:14;2.90;;;2.20;;
56517;SDS011;42419;48.760;2.322;2023-08-01T14:27:39;2.50;;;2.17;;
56517;SDS011;42419;48.760;2.322;2023-08-01T14:30:05;4.03;;;1.90;;
56517;SDS011;42419;48.760;2.322;2023-08-01T14:32:31;2.50;;;2.00;;
56517;SDS011;42419;48.760;2.322;2023-08-01T14:34:57;2.83;;;2.40;;
56517;SDS011;42419;48.760;2.322;2023-08-01T14:37:22;3.03;;;2.40;;
56517;SDS011;42419;48.760;2.322;2023-08-01T14:39:49;3.73;;;2.70;;
56517;SDS011;42419;48.760;2.322;2023-08-01T14:42:15;4.03;;;2.93;;
56517;SDS011;42419;48.760;2.322;2023-08-01T14:44:40;4.03;;;2.50;;